ADDS METAR Data INFO
IDs: Format: Raw Decoded Include TAF

Data at: 0011 UTC 25 Nov 2017

KBWD 242355Z AUTO 17005KT 10SM CLR 20/00 A2979 RMK AO2
KBWD 242335Z AUTO 15006KT 10SM CLR 21/00 A2978 RMK AO2
KBWD 242315Z AUTO 16005KT 10SM CLR 23/00 A2979 RMK AO2
KBWD 242255Z AUTO 17010KT 10SM CLR 24/00 A2978 RMK AO2
KBWD 242235Z AUTO 17009G14KT 10SM CLR 24/00 A2978 RMK AO2
KBWD 242215Z AUTO 19010G15KT 10SM CLR 25/00 A2979 RMK AO2
KBWD 242155Z AUTO 19008G15KT 10SM CLR 26/00 A2979 RMK AO2
KBWD 242135Z AUTO 18007G16KT 10SM CLR 26/00 A2980 RMK AO2
KBWD 242115Z AUTO 18009KT 10SM CLR 26/00 A2980 RMK AO2
KBWD 242055Z AUTO 20012G15KT 10SM CLR 26/00 A2982 RMK AO2
KBWD 242035Z AUTO 19011G14KT 10SM CLR 26/00 A2982 RMK AO2
KBWD 242015Z AUTO 19010KT 10SM CLR 26/00 A2983 RMK AO2
KBWD 241955Z AUTO 20010KT 10SM CLR 25/00 A2983 RMK AO2
KBWD 241935Z AUTO 20006G21KT 10SM CLR 25/00 A2984 RMK AO2
KBWD 241915Z AUTO 20012G16KT 160V220 10SM CLR 25/00 A2986 RMK AO2
KBWD 241855Z AUTO 18008G15KT 10SM CLR 24/02 A2988 RMK AO2
KBWD 241835Z AUTO 20008G14KT 160V220 10SM CLR 23/02 A2989 RMK AO2
KBWD 241815Z AUTO 19010KT 10SM CLR 23/02 A2992 RMK AO2
KBWD 241755Z AUTO 18010KT 10SM CLR 22/02 A2992 RMK AO2
KBWD 241735Z AUTO 18008KT 10SM CLR 21/02 A2993 RMK AO2
KBWD 241715Z AUTO 19007KT 160V220 10SM CLR 20/03 A2995 RMK AO2
KBWD 241655Z AUTO 20007KT 10SM CLR 19/03 A2995 RMK AO2
KBWD 241635Z AUTO 21006KT 10SM CLR 18/02 A2996 RMK AO2
KBWD 241615Z AUTO 19006KT 10SM CLR 17/02 A2997 RMK AO2
KBWD 241555Z AUTO 21007KT 10SM CLR 15/02 A2997 RMK AO2
KBWD 241535Z AUTO 19006KT 10SM CLR 14/02 A2997 RMK AO2
KBWD 241515Z AUTO 20005KT 10SM CLR 12/02 A2998 RMK AO2
KBWD 241455Z AUTO 18004KT 10SM CLR 11/02 A2998 RMK AO2
KBWD 241435Z AUTO 00000KT 10SM CLR 08/02 A2998 RMK AO2
KBWD 241415Z AUTO 00000KT 10SM CLR 06/01 A2998 RMK AO2
KBWD 241355Z AUTO 00000KT 10SM CLR 04/00 A2998 RMK AO2
KBWD 241335Z AUTO 00000KT 10SM CLR 02/M01 A2998 RMK AO2
KBWD 241315Z AUTO 00000KT 10SM CLR 01/M01 A2998 RMK AO2
KBWD 241255Z AUTO 00000KT 10SM CLR 02/00 A2998 RMK AO2
KBWD 241235Z AUTO 00000KT 10SM CLR 02/00 A2997 RMK AO2
KBWD 241215Z AUTO 00000KT 10SM CLR 02/00 A2997 RMK AO2
KBWD 241155Z AUTO 00000KT 10SM CLR 01/00 A2997 RMK AO2
KBWD 241135Z AUTO 00000KT 10SM CLR 01/00 A2997 RMK AO2
KBWD 241115Z AUTO 00000KT 10SM FEW036 01/M01 A2998 RMK AO2
KBWD 241055Z AUTO 00000KT 10SM CLR 01/M01 A2998 RMK AO2
KBWD 241035Z AUTO 00000KT 10SM CLR 02/M02 A2998 RMK AO2
KBWD 241015Z AUTO 00000KT 10SM CLR 03/00 A2998 RMK AO2
KBWD 240955Z AUTO 00000KT 10SM CLR 02/M01 A2999 RMK AO2
KBWD 240935Z AUTO 00000KT 10SM FEW031 03/M01 A2999 RMK AO2
KBWD 240915Z AUTO 00000KT 10SM CLR 03/00 A2999 RMK AO2
KBWD 240855Z AUTO 00000KT 10SM CLR 03/00 A2999 RMK AO2
KBWD 240835Z AUTO 00000KT 10SM FEW030 03/M01 A3000 RMK AO2
KBWD 240815Z AUTO 00000KT 10SM CLR 03/M01 A3001 RMK AO2
KBWD 240755Z AUTO 00000KT 10SM FEW034 03/00 A3002 RMK AO2
KBWD 240735Z AUTO 00000KT 10SM FEW028 FEW034 04/00 A3002 RMK AO2
KBWD 240715Z AUTO 00000KT 10SM FEW034 04/00 A3003 RMK AO2
KBWD 240655Z AUTO 00000KT 10SM FEW031 04/00 A3003 RMK AO2
KBWD 240635Z AUTO 00000KT 10SM CLR 03/00 A3004 RMK AO2
KBWD 240615Z AUTO 00000KT 10SM CLR 04/00 A3004 RMK AO2
KBWD 240555Z AUTO 00000KT 10SM FEW035 04/00 A3005 RMK AO2
KBWD 240535Z AUTO 00000KT 10SM FEW029 FEW035 05/00 A3005 RMK AO2
KBWD 240515Z AUTO 11003KT 10SM CLR 05/00 A3005 RMK AO2
KBWD 240455Z AUTO 10003KT 10SM CLR 05/00 A3006 RMK AO2
KBWD 240435Z AUTO 08003KT 10SM CLR 05/00 A3007 RMK AO2
KBWD 240415Z AUTO 00000KT 10SM CLR 05/00 A3006 RMK AO2
KBWD 240355Z AUTO 00000KT 10SM CLR 07/M01 A3007 RMK AO2
KBWD 240335Z AUTO 00000KT 10SM CLR 07/00 A3007 RMK AO2
KBWD 240315Z AUTO 00000KT 10SM FEW035 08/00 A3007 RMK AO2
KBWD 240255Z AUTO 32003KT 10SM FEW036 08/00 A3007 RMK AO2
KBWD 240235Z AUTO 00000KT 10SM FEW034 08/00 A3006 RMK AO2
KBWD 240215Z AUTO 00000KT 10SM FEW031 09/00 A3006 RMK AO2
KBWD 240155Z AUTO 00000KT 10SM FEW033 10/00 A3006 RMK AO2
KBWD 240135Z AUTO 00000KT 10SM FEW033 12/00 A3006 RMK AO2
KBWD 240115Z AUTO 00000KT 10SM FEW035 13/00 A3006 RMK AO2
KBWD 240055Z AUTO 00000KT 10SM FEW033 13/00 A3005 RMK AO2
KBWD 240035Z AUTO 00000KT 10SM FEW036 14/00 A3005 RMK AO2
KBWD 240015Z AUTO 14003KT 10SM CLR 13/00 A3005 RMK AO2
KBWD 232355Z AUTO 16003KT 10SM CLR 15/00 A3005 RMK AO2
KBWD 232335Z AUTO 16003KT 10SM CLR 18/M01 A3005 RMK AO2
KBWD 232315Z AUTO 20003KT 10SM CLR 19/M01 A3005 RMK AO2
KBWD 232255Z AUTO 22005KT 10SM CLR 20/M01 A3005 RMK AO2
KBWD 232235Z AUTO 26007KT 10SM CLR 21/M01 A3005 RMK AO2
KBWD 232215Z AUTO 23007KT 10SM CLR 22/M01 A3005 RMK AO2
KBWD 232155Z AUTO 26006KT 10SM CLR 22/M01 A3005 RMK AO2
KBWD 232135Z AUTO 24004KT 10SM CLR 22/M02 A3005 RMK AO2
KBWD 232115Z AUTO 23009G14KT 10SM CLR 22/M01 A3005 RMK AO2
KBWD 232055Z AUTO 24009KT 10SM CLR 21/M02 A3006 RMK AO2
KBWD 232035Z AUTO 20003KT 10SM CLR 21/M02 A3007 RMK AO2
KBWD 232015Z AUTO 27009KT 10SM CLR 21/M02 A3008 RMK AO2
KBWD 231955Z AUTO 24007KT 10SM CLR 21/M02 A3008 RMK AO2
KBWD 231935Z AUTO 23009KT 10SM CLR 20/M02 A3009 RMK AO2
KBWD 231915Z AUTO 26004KT 10SM CLR 20/M03 A3011 RMK AO2
KBWD 231855Z AUTO 24010KT 190V270 10SM CLR 20/M03 A3012 RMK AO2
KBWD 231835Z AUTO 24006KT 10SM CLR 19/M02 A3013 RMK AO2
KBWD 231815Z AUTO 22005KT 10SM CLR 19/M03 A3015 RMK AO2
KBWD 231755Z AUTO 26007KT 10SM CLR 18/M03 A3016 RMK AO2
KBWD 231735Z AUTO 24008KT 10SM CLR 18/M04 A3017 RMK AO2
KBWD 231715Z AUTO 21005KT 10SM CLR 17/M02 A3018 RMK AO2
KBWD 231655Z AUTO 19004KT 10SM CLR 14/M02 A3020 RMK AO2
KBWD 231635Z AUTO 00000KT 10SM CLR 13/M01 A3020 RMK AO2
KBWD 231615Z AUTO 00000KT 9SM CLR 11/M01 A3021 RMK AO2
KBWD 231555Z AUTO 00000KT 10SM CLR 09/00 A3022 RMK AO2
KBWD 231535Z AUTO 00000KT 10SM CLR 08/00 A3022 RMK AO2
KBWD 231515Z AUTO 00000KT 10SM CLR 06/00 A3022 RMK AO2
KBWD 231455Z AUTO 00000KT 10SM CLR 04/M03 A3022 RMK AO2
KBWD 231435Z AUTO 00000KT 10SM CLR 02/M02 A3022 RMK AO2
KBWD 231415Z AUTO 00000KT 10SM CLR 00/M02 A3022 RMK AO2
KBWD 231355Z AUTO 00000KT 10SM CLR 00/M03 A3021 RMK AO2
KBWD 231335Z AUTO 00000KT 10SM CLR M02/M04 A3021 RMK AO2
KBWD 231315Z AUTO 00000KT 10SM CLR M02/M04 A3021 RMK AO2
KBWD 231255Z AUTO 00000KT 10SM SCT050 M02/M04 A3021 RMK AO2
KBWD 231235Z AUTO 00000KT 10SM OVC050 M02/M04 A3021 RMK AO2
KBWD 231215Z AUTO 00000KT 10SM BKN048 OVC050 M02/M04 A3021 RMK AO2